sensor_id;sensor_type;location;lat;lon;timestamp;P1;P4;P2;P0;N10;N4;N25;N1;N05;TS
44530;SPS30;30240;47.418;0.700;2023-05-10T00:02:08;2.5742822;;1.8870848;;;;;;;
44530;SPS30;30240;47.418;0.700;2023-05-10T00:04:34;3.4511616;;2.5146804;;;;;;;
44530;SPS30;30240;47.418;0.700;2023-05-10T00:06:58;3.4511616;;2.5146804;;;;;;;
44530;SPS30;30240;47.418;0.700;2023-05-10T00:09:23;2.6084921;;1.893856;;;;;;;
44530;SPS30;30240;47.418;0.700;2023-05-10T00:11:49;3.3143747;;2.4615438;;;;;;;
44530;SPS30;30240;47.418;0.700;2023-05-10T00:14:13;2.4362824;;1.7968094;;;;;;;
44530;SPS30;30240;47.418;0.700;2023-05-10T00:16:38;4.1156125;;3.040959;;;;;;;
44530;SPS30;30240;47.418;0.700;2023-05-10T00:19:03;4.1156125;;3.040959;;;;;;;
44530;SPS30;30240;47.418;0.700;2023-05-10T00:21:29;2.954238;;2.246221;;;;;;;
44530;SPS30;30240;47.418;0.700;2023-05-10T00:23:53;2.8016999;;2.1174338;;;;;;;
44530;SPS30;30240;47.418;0.700;2023-05-10T00:26:18;2.6917472;;2.0195243;;;;;;;
44530;SPS30;30240;47.418;0.700;2023-05-10T00:28:43;3.0228155;;2.2548735;;;;;;;
44530;SPS30;30240;47.418;0.700;2023-05-10T00:31:09;3.0188289;;2.295992;;;;;;;
44530;SPS30;30240;47.418;0.700;2023-05-10T00:33:33;3.0188289;;2.295992;;;;;;;
44530;SPS30;30240;47.418;0.700;2023-05-10T00:35:58;3.3854942;;2.5542173;;;;;;;
44530;SPS30;30240;47.418;0.700;2023-05-10T00:38:23;4.327286;;3.2688115;;;;;;;
44530;SPS30;30240;47.418;0.700;2023-05-10T00:40:48;2.775763;;2.0787256;;;;;;;
44530;SPS30;30240;47.418;0.700;2023-05-10T00:43:13;2.8279574;;2.126441;;;;;;;
44530;SPS30;30240;47.418;0.700;2023-05-10T00:45:38;2.8279574;;2.126441;;;;;;;
44530;SPS30;30240;47.418;0.700;2023-05-10T00:48:03;2.3889365;;1.8233881;;;;;;;
44530;SPS30;30240;47.418;0.700;2023-05-10T00:50:29;2.9258893;;2.2244554;;;;;;;
44530;SPS30;30240;47.418;0.700;2023-05-10T00:52:53;3.0862012;;2.327734;;;;;;;
44530;SPS30;30240;47.418;0.700;2023-05-10T00:55:19;3.1051946;;2.3154671;;;;;;;
44530;SPS30;30240;47.418;0.700;2023-05-10T00:57:44;3.1051946;;2.3154671;;;;;;;
44530;SPS30;30240;47.418;0.700;2023-05-10T01:00:09;2.4658039;;1.8533989;;;;;;;
44530;SPS30;30240;47.418;0.700;2023-05-10T01:02:34;2.851655;;2.1589632;;;;;;;
44530;SPS30;30240;47.418;0.700;2023-05-10T01:04:58;3.5157557;;2.6573546;;;;;;;
44530;SPS30;30240;47.418;0.700;2023-05-10T01:07:23;3.6392078;;2.765387;;;;;;;
44530;SPS30;30240;47.418;0.700;2023-05-10T01:09:48;3.6392078;;2.765387;;;;;;;
44530;SPS30;30240;47.418;0.700;2023-05-10T01:12:13;3.228091;;2.4770298;;;;;;;
44530;SPS30;30240;47.418;0.700;2023-05-10T01:14:39;3.5965881;;2.7463152;;;;;;;
44530;SPS30;30240;47.418;0.700;2023-05-10T01:17:04;3.882149;;2.8596866;;;;;;;
44530;SPS30;30240;47.418;0.700;2023-05-10T01:19:29;3.8370771;;2.836915;;;;;;;
44530;SPS30;30240;47.418;0.700;2023-05-10T01:21:56;3.8370771;;2.836915;;;;;;;
44530;SPS30;30240;47.418;0.700;2023-05-10T01:24:36;3.824588;;2.8851914;;;;;;;
44530;SPS30;30240;47.418;0.700;2023-05-10T01:26:59;3.43948;;2.590919;;;;;;;
44530;SPS30;30240;47.418;0.700;2023-05-10T01:29:14;3.088884;;2.359422;;;;;;;
44530;SPS30;30240;47.418;0.700;2023-05-10T01:31:39;3.3348076;;2.5250988;;;;;;;
44530;SPS30;30240;47.418;0.700;2023-05-10T01:33:59;3.3348076;;2.5250988;;;;;;;
44530;SPS30;30240;47.418;0.700;2023-05-10T01:36:25;3.0278978;;2.3065326;;;;;;;
44530;SPS30;30240;47.418;0.700;2023-05-10T01:38:49;3.199576;;2.3915563;;;;;;;
44530;SPS30;30240;47.418;0.700;2023-05-10T01:41:14;3.132555;;2.343835;;;;;;;
44530;SPS30;30240;47.418;0.700;2023-05-10T01:43:41;2.2968903;;1.7637646;;;;;;;
44530;SPS30;30240;47.418;0.700;2023-05-10T01:46:05;2.2968903;;1.7637646;;;;;;;
44530;SPS30;30240;47.418;0.700;2023-05-10T01:48:28;3.5306015;;2.600194;;;;;;;
44530;SPS30;30240;47.418;0.700;2023-05-10T01:50:53;3.127357;;2.3453608;;;;;;;
44530;SPS30;30240;47.418;0.700;2023-05-10T01:53:19;3.3593369;;2.604801;;;;;;;
44530;SPS30;30240;47.418;0.700;2023-05-10T01:55:44;2.8209996;;2.1444247;;;;;;;
44530;SPS30;30240;47.418;0.700;2023-05-10T01:58:09;3.508974;;2.7199621;;;;;;;
44530;SPS30;30240;47.418;0.700;2023-05-10T02:00:34;3.508974;;2.7199621;;;;;;;
44530;SPS30;30240;47.418;0.700;2023-05-10T02:02:59;3.5494578;;2.7507682;;;;;;;
44530;SPS30;30240;47.418;0.700;2023-05-10T02:05:24;2.297777;;1.8259807;;;;;;;
44530;SPS30;30240;47.418;0.700;2023-05-10T02:07:48;3.6460552;;2.8665767;;;;;;;
44530;SPS30;30240;47.418;0.700;2023-05-10T02:10:13;3.0005069;;2.3522122;;;;;;;
44530;SPS30;30240;47.418;0.700;2023-05-10T02:12:41;3.0005069;;2.3522122;;;;;;;
44530;SPS30;30240;47.418;0.700;2023-05-10T02:15:04;2.4612813;;1.98054;;;;;;;
44530;SPS30;30240;47.418;0.700;2023-05-10T02:17:29;2.2588823;;1.7748017;;;;;;;
44530;SPS30;30240;47.418;0.700;2023-05-10T02:19:53;3.507376;;2.7808774;;;;;;;
44530;SPS30;30240;47.418;0.700;2023-05-10T02:22:18;2.9003615;;2.2277005;;;;;;;
44530;SPS30;30240;47.418;0.700;2023-05-10T02:24:43;2.9003615;;2.2277005;;;;;;;
44530;SPS30;30240;47.418;0.700;2023-05-10T02:27:08;2.9208362;;2.2474098;;;;;;;
44530;SPS30;30240;47.418;0.700;2023-05-10T02:29:33;3.1957126;;2.3951588;;;;;;;
44530;SPS30;30240;47.418;0.700;2023-05-10T02:31:59;3.7194922;;2.7864003;;;;;;;
44530;SPS30;30240;47.418;0.700;2023-05-10T02:34:24;4.7484245;;3.5058167;;;;;;;
44530;SPS30;30240;47.418;0.700;2023-05-10T02:36:48;4.7484245;;3.5058167;;;;;;;
44530;SPS30;30240;47.418;0.700;2023-05-10T02:39:14;3.6185665;;2.6086817;;;;;;;
44530;SPS30;30240;47.418;0.700;2023-05-10T02:41:38;3.9206183;;2.835577;;;;;;;
44530;SPS30;30240;47.418;0.700;2023-05-10T02:44:03;3.677255;;2.6923716;;;;;;;
44530;SPS30;30240;47.418;0.700;2023-05-10T02:46:28;4.4855247;;3.3051698;;;;;;;
44530;SPS30;30240;47.418;0.700;2023-05-10T02:48:53;4.4855247;;3.3051698;;;;;;;
44530;SPS30;30240;47.418;0.700;2023-05-10T02:51:18;3.0958705;;2.3228817;;;;;;;
44530;SPS30;30240;47.418;0.700;2023-05-10T02:53:44;3.011864;;2.2697408;;;;;;;
44530;SPS30;30240;47.418;0.700;2023-05-10T02:56:11;3.7009504;;2.6873538;;;;;;;
44530;SPS30;30240;47.418;0.700;2023-05-10T02:58:33;4.527475;;3.2762063;;;;;;;
44530;SPS30;30240;47.418;0.700;2023-05-10T03:00:59;4.527475;;3.2762063;;;;;;;
44530;SPS30;30240;47.418;0.700;2023-05-10T03:03:23;3.342683;;2.403767;;;;;;;
44530;SPS30;30240;47.418;0.700;2023-05-10T03:05:48;4.464043;;3.252508;;;;;;;
44530;SPS30;30240;47.418;0.700;2023-05-10T03:08:13;3.7538695;;2.750408;;;;;;;
44530;SPS30;30240;47.418;0.700;2023-05-10T03:10:41;3.8466477;;2.7487383;;;;;;;
44530;SPS30;30240;47.418;0.700;2023-05-10T03:10:47;3.8466477;;2.7487383;;;;;;;
44530;SPS30;30240;47.418;0.700;2023-05-10T03:13:06;3.8466477;;2.7487383;;;;;;;
44530;SPS30;30240;47.418;0.700;2023-05-10T03:15:31;3.643631;;2.6651006;;;;;;;
44530;SPS30;30240;47.418;0.700;2023-05-10T03:17:55;3.6681452;;2.7017372;;;;;;;
44530;SPS30;30240;47.418;0.700;2023-05-10T03:20:20;2.9379518;;2.1648116;;;;;;;
44530;SPS30;30240;47.418;0.700;2023-05-10T03:22:44;2.8931575;;2.1072106;;;;;;;
44530;SPS30;30240;47.418;0.700;2023-05-10T03:25:08;4.440673;;3.222706;;;;;;;
44530;SPS30;30240;47.418;0.700;2023-05-10T03:27:34;4.440673;;3.222706;;;;;;;
44530;SPS30;30240;47.418;0.700;2023-05-10T03:29:58;3.8802962;;2.8283186;;;;;;;
44530;SPS30;30240;47.418;0.700;2023-05-10T03:32:23;4.38411;;3.2662823;;;;;;;
44530;SPS30;30240;47.418;0.700;2023-05-10T03:34:49;4.049671;;2.9699304;;;;;;;
44530;SPS30;30240;47.418;0.700;2023-05-10T03:37:13;3.1919243;;2.3995428;;;;;;;
44530;SPS30;30240;47.418;0.700;2023-05-10T03:39:38;3.1919243;;2.3995428;;;;;;;
44530;SPS30;30240;47.418;0.700;2023-05-10T03:42:04;3.6879764;;2.75989;;;;;;;
44530;SPS30;30240;47.418;0.700;2023-05-10T03:44:28;4.288845;;3.1865604;;;;;;;
44530;SPS30;30240;47.418;0.700;2023-05-10T03:46:53;3.8326576;;2.8227725;;;;;;;
44530;SPS30;30240;47.418;0.700;2023-05-10T03:49:18;3.6368139;;2.660974;;;;;;;
44530;SPS30;30240;47.418;0.700;2023-05-10T03:51:43;3.6368139;;2.660974;;;;;;;
44530;SPS30;30240;47.418;0.700;2023-05-10T03:54:08;3.827964;;2.809358;;;;;;;
44530;SPS30;30240;47.418;0.700;2023-05-10T03:56:34;4.469456;;3.266322;;;;;;;
44530;SPS30;30240;47.418;0.700;2023-05-10T03:58:58;3.3578837;;2.493672;;;;;;;
44530;SPS30;30240;47.418;0.700;2023-05-10T04:01:23;3.7721655;;2.7900352;;;;;;;
44530;SPS30;30240;47.418;0.700;2023-05-10T04:03:48;3.7721655;;2.7900352;;;;;;;
44530;SPS30;30240;47.418;0.700;2023-05-10T04:06:13;3.8715074;;2.7983093;;;;;;;
44530;SPS30;30240;47.418;0.700;2023-05-10T04:08:38;4.301582;;3.1711419;;;;;;;
44530;SPS30;30240;47.418;0.700;2023-05-10T04:11:05;3.3602235;;2.4481204;;;;;;;
44530;SPS30;30240;47.418;0.700;2023-05-10T04:13:28;3.4636745;;2.5440588;;;;;;;
44530;SPS30;30240;47.418;0.700;2023-05-10T04:15:53;3.4636745;;2.5440588;;;;;;;
44530;SPS30;30240;47.418;0.700;2023-05-10T04:18:19;5.2431707;;3.8651338;;;;;;;
44530;SPS30;30240;47.418;0.700;2023-05-10T04:20:43;4.4169497;;3.232646;;;;;;;
44530;SPS30;30240;47.418;0.700;2023-05-10T04:23:08;4.3790817;;3.149579;;;;;;;
44530;SPS30;30240;47.418;0.700;2023-05-10T04:25:33;4.4309273;;3.1458604;;;;;;;
44530;SPS30;30240;47.418;0.700;2023-05-10T04:27:58;4.4309273;;3.1458604;;;;;;;
44530;SPS30;30240;47.418;0.700;2023-05-10T04:30:24;4.2633443;;3.0436316;;;;;;;
44530;SPS30;30240;47.418;0.700;2023-05-10T04:32:48;4.256844;;3.0779576;;;;;;;
44530;SPS30;30240;47.418;0.700;2023-05-10T04:35:13;4.5672703;;3.27798;;;;;;;
44530;SPS30;30240;47.418;0.700;2023-05-10T04:37:38;4.3745146;;3.1990917;;;;;;;
44530;SPS30;30240;47.418;0.700;2023-05-10T04:40:04;4.3745146;;3.1990917;;;;;;;
44530;SPS30;30240;47.418;0.700;2023-05-10T04:42:28;4.531437;;3.309189;;;;;;;
44530;SPS30;30240;47.418;0.700;2023-05-10T04:44:53;4.652458;;3.3667622;;;;;;;
44530;SPS30;30240;47.418;0.700;2023-05-10T04:47:18;5.345126;;3.78923;;;;;;;
44530;SPS30;30240;47.418;0.700;2023-05-10T04:49:43;4.11511;;2.9860494;;;;;;;
44530;SPS30;30240;47.418;0.700;2023-05-10T04:52:08;4.11511;;2.9860494;;;;;;;
44530;SPS30;30240;47.418;0.700;2023-05-10T04:54:33;5.1454306;;3.792739;;;;;;;
44530;SPS30;30240;47.418;0.700;2023-05-10T04:56:58;5.357533;;3.9587936;;;;;;;
44530;SPS30;30240;47.418;0.700;2023-05-10T04:59:23;3.7064414;;2.7183917;;;;;;;
44530;SPS30;30240;47.418;0.700;2023-05-10T05:01:48;5.9816513;;4.267178;;;;;;;
44530;SPS30;30240;47.418;0.700;2023-05-10T05:04:13;5.817963;;4.154689;;;;;;;
44530;SPS30;30240;47.418;0.700;2023-05-10T05:06:38;5.817963;;4.154689;;;;;;;
44530;SPS30;30240;47.418;0.700;2023-05-10T05:09:04;5.2477694;;3.7680671;;;;;;;
44530;SPS30;30240;47.418;0.700;2023-05-10T05:11:28;6.926526;;4.920682;;;;;;;
44530;SPS30;30240;47.418;0.700;2023-05-10T05:13:53;4.8894925;;3.4116833;;;;;;;
44530;SPS30;30240;47.418;0.700;2023-05-10T05:16:19;6.805831;;4.8510785;;;;;;;
44530;SPS30;30240;47.418;0.700;2023-05-10T05:18:43;6.805831;;4.8510785;;;;;;;
44530;SPS30;30240;47.418;0.700;2023-05-10T05:21:17;4.928393;;3.8523057;;;;;;;
44530;SPS30;30240;47.418;0.700;2023-05-10T05:23:33;4.4294977;;3.491228;;;;;;;
44530;SPS30;30240;47.418;0.700;2023-05-10T05:25:58;4.072777;;3.1108863;;;;;;;
44530;SPS30;30240;47.418;0.700;2023-05-10T05:28:24;5.6354065;;4.2101374;;;;;;;
44530;SPS30;30240;47.418;0.700;2023-05-10T05:30:48;5.6354065;;4.2101374;;;;;;;
44530;SPS30;30240;47.418;0.700;2023-05-10T05:33:14;4.33108;;3.2028835;;;;;;;
44530;SPS30;30240;47.418;0.700;2023-05-10T05:35:38;5.232949;;3.8517878;;;;;;;
44530;SPS30;30240;47.418;0.700;2023-05-10T05:38:03;3.2266467;;2.3532634;;;;;;;
44530;SPS30;30240;47.418;0.700;2023-05-10T05:40:28;5.2668557;;3.8393888;;;;;;;
44530;SPS30;30240;47.418;0.700;2023-05-10T05:42:54;5.2668557;;3.8393888;;;;;;;
44530;SPS30;30240;47.418;0.700;2023-05-10T05:45:18;5.545839;;4.0021067;;;;;;;
44530;SPS30;30240;47.418;0.700;2023-05-10T05:47:44;5.4535437;;3.9596272;;;;;;;
44530;SPS30;30240;47.418;0.700;2023-05-10T05:50:09;5.175488;;3.767376;;;;;;;
44530;SPS30;30240;47.418;0.700;2023-05-10T05:52:33;4.4423723;;3.1990848;;;;;;;
44530;SPS30;30240;47.418;0.700;2023-05-10T05:54:58;4.4423723;;3.1990848;;;;;;;
44530;SPS30;30240;47.418;0.700;2023-05-10T05:57:23;3.9064548;;2.8479795;;;;;;;
44530;SPS30;30240;47.418;0.700;2023-05-10T05:59:48;4.8397284;;3.4623504;;;;;;;
44530;SPS30;30240;47.418;0.700;2023-05-10T06:02:13;6.395345;;4.589918;;;;;;;
44530;SPS30;30240;47.418;0.700;2023-05-10T06:04:38;5.587164;;4.0167274;;;;;;;
44530;SPS30;30240;47.418;0.700;2023-05-10T06:07:03;5.587164;;4.0167274;;;;;;;
44530;SPS30;30240;47.418;0.700;2023-05-10T06:09:29;5.6407137;;3.996962;;;;;;;
44530;SPS30;30240;47.418;0.700;2023-05-10T06:11:53;6.540045;;4.6248136;;;;;;;
44530;SPS30;30240;47.418;0.700;2023-05-10T06:14:19;6.476641;;4.670289;;;;;;;
44530;SPS30;30240;47.418;0.700;2023-05-10T06:16:43;4.9132257;;3.5180943;;;;;;;
44530;SPS30;30240;47.418;0.700;2023-05-10T06:19:08;4.9132257;;3.5180943;;;;;;;
44530;SPS30;30240;47.418;0.700;2023-05-10T06:21:34;3.3295445;;2.3691576;;;;;;;
44530;SPS30;30240;47.418;0.700;2023-05-10T06:23:58;3.869844;;2.74566;;;;;;;
44530;SPS30;30240;47.418;0.700;2023-05-10T06:26:23;4.5787597;;3.29908;;;;;;;
44530;SPS30;30240;47.418;0.700;2023-05-10T06:28:48;4.6908593;;3.37612;;;;;;;
44530;SPS30;30240;47.418;0.700;2023-05-10T06:31:13;4.538515;;3.3141048;;;;;;;
44530;SPS30;30240;47.418;0.700;2023-05-10T06:33:38;4.538515;;3.3141048;;;;;;;
44530;SPS30;30240;47.418;0.700;2023-05-10T06:36:04;4.9602375;;3.5377288;;;;;;;
44530;SPS30;30240;47.418;0.700;2023-05-10T06:38:28;6.073901;;4.364109;;;;;;;
44530;SPS30;30240;47.418;0.700;2023-05-10T06:40:53;4.1754436;;3.035092;;;;;;;
44530;SPS30;30240;47.418;0.700;2023-05-10T06:43:18;4.442298;;3.258556;;;;;;;
44530;SPS30;30240;47.418;0.700;2023-05-10T06:45:43;4.442298;;3.258556;;;;;;;
44530;SPS30;30240;47.418;0.700;2023-05-10T06:48:08;5.246668;;3.815543;;;;;;;
44530;SPS30;30240;47.418;0.700;2023-05-10T06:50:34;6.0201774;;4.4331403;;;;;;;
44530;SPS30;30240;47.418;0.700;2023-05-10T06:52:58;5.057949;;3.6683764;;;;;;;
44530;SPS30;30240;47.418;0.700;2023-05-10T06:55:23;4.2602057;;3.1238024;;;;;;;
44530;SPS30;30240;47.418;0.700;2023-05-10T06:57:48;4.2602057;;3.1238024;;;;;;;
44530;SPS30;30240;47.418;0.700;2023-05-10T07:00:14;4.142565;;3.0819242;;;;;;;
44530;SPS30;30240;47.418;0.700;2023-05-10T07:02:38;4.688116;;3.3903582;;;;;;;
44530;SPS30;30240;47.418;0.700;2023-05-10T07:05:04;6.534463;;4.6848636;;;;;;;
44530;SPS30;30240;47.418;0.700;2023-05-10T07:07:28;5.440053;;3.8557067;;;;;;;
44530;SPS30;30240;47.418;0.700;2023-05-10T07:09:54;5.440053;;3.8557067;;;;;;;
44530;SPS30;30240;47.418;0.700;2023-05-10T07:12:18;4.754476;;3.397703;;;;;;;
44530;SPS30;30240;47.418;0.700;2023-05-10T07:14:43;3.9967523;;2.917796;;;;;;;
44530;SPS30;30240;47.418;0.700;2023-05-10T07:17:08;5.026757;;3.6567311;;;;;;;
44530;SPS30;30240;47.418;0.700;2023-05-10T07:19:33;4.645501;;3.2868807;;;;;;;
44530;SPS30;30240;47.418;0.700;2023-05-10T07:21:58;4.645501;;3.2868807;;;;;;;
44530;SPS30;30240;47.418;0.700;2023-05-10T07:24:23;4.2308316;;3.0572534;;;;;;;
44530;SPS30;30240;47.418;0.700;2023-05-10T07:26:48;5.321461;;3.879699;;;;;;;
44530;SPS30;30240;47.418;0.700;2023-05-10T07:29:13;4.1305447;;2.9892457;;;;;;;
44530;SPS30;30240;47.418;0.700;2023-05-10T07:31:38;4.229975;;3.0115597;;;;;;;
44530;SPS30;30240;47.418;0.700;2023-05-10T07:34:03;4.229975;;3.0115597;;;;;;;
44530;SPS30;30240;47.418;0.700;2023-05-10T07:36:28;4.4188423;;3.1508136;;;;;;;
44530;SPS30;30240;47.418;0.700;2023-05-10T07:38:53;6.0261517;;4.325497;;;;;;;
44530;SPS30;30240;47.418;0.700;2023-05-10T07:41:18;5.472601;;3.9327302;;;;;;;
44530;SPS30;30240;47.418;0.700;2023-05-10T07:43:43;3.9889877;;2.8662755;;;;;;;
44530;SPS30;30240;47.418;0.700;2023-05-10T07:46:08;3.9889877;;2.8662755;;;;;;;
44530;SPS30;30240;47.418;0.700;2023-05-10T07:48:34;5.1050944;;3.6723516;;;;;;;
44530;SPS30;30240;47.418;0.700;2023-05-10T07:50:58;5.038471;;3.7307868;;;;;;;
44530;SPS30;30240;47.418;0.700;2023-05-10T07:53:25;4.6888065;;3.4074512;;;;;;;
44530;SPS30;30240;47.418;0.700;2023-05-10T07:55:50;5.1858563;;3.8043413;;;;;;;
44530;SPS30;30240;47.418;0.700;2023-05-10T07:58:14;5.1858563;;3.8043413;;;;;;;
44530;SPS30;30240;47.418;0.700;2023-05-10T08:00:38;5.006888;;3.6544087;;;;;;;
44530;SPS30;30240;47.418;0.700;2023-05-10T08:03:03;4.3714194;;3.1120894;;;;;;;
44530;SPS30;30240;47.418;0.700;2023-05-10T08:05:28;3.0657456;;2.2248971;;;;;;;
44530;SPS30;30240;47.418;0.700;2023-05-10T08:07:53;4.80845;;3.5735867;;;;;;;
44530;SPS30;30240;47.418;0.700;2023-05-10T08:10:18;2.6110902;;1.9416339;;;;;;;
44530;SPS30;30240;47.418;0.700;2023-05-10T08:12:43;2.6110902;;1.9416339;;;;;;;
44530;SPS30;30240;47.418;0.700;2023-05-10T08:15:09;3.2890363;;2.4276679;;;;;;;
44530;SPS30;30240;47.418;0.700;2023-05-10T08:17:34;2.8105562;;2.093723;;;;;;;
44530;SPS30;30240;47.418;0.700;2023-05-10T08:19:59;3.1907365;;2.4197395;;;;;;;
44530;SPS30;30240;47.418;0.700;2023-05-10T08:22:24;3.9938807;;2.9862387;;;;;;;
44530;SPS30;30240;47.418;0.700;2023-05-10T08:24:48;3.9938807;;2.9862387;;;;;;;
44530;SPS30;30240;47.418;0.700;2023-05-10T08:27:13;3.3605914;;2.5182765;;;;;;;
44530;SPS30;30240;47.418;0.700;2023-05-10T08:29:38;3.4780536;;2.6577349;;;;;;;
44530;SPS30;30240;47.418;0.700;2023-05-10T08:32:04;3.8937197;;2.9544687;;;;;;;
44530;SPS30;30240;47.418;0.700;2023-05-10T08:34:28;3.1998622;;2.4441888;;;;;;;
44530;SPS30;30240;47.418;0.700;2023-05-10T08:36:53;3.1998622;;2.4441888;;;;;;;
44530;SPS30;30240;47.418;0.700;2023-05-10T08:39:18;3.3524454;;2.5429487;;;;;;;
44530;SPS30;30240;47.418;0.700;2023-05-10T08:41:44;3.833525;;2.873152;;;;;;;
44530;SPS30;30240;47.418;0.700;2023-05-10T08:44:08;3.4975214;;2.6457477;;;;;;;
44530;SPS30;30240;47.418;0.700;2023-05-10T08:46:34;2.8360395;;2.164893;;;;;;;
44530;SPS30;30240;47.418;0.700;2023-05-10T08:48:58;2.8360395;;2.164893;;;;;;;
44530;SPS30;30240;47.418;0.700;2023-05-10T08:51:24;2.7605922;;2.1044219;;;;;;;
44530;SPS30;30240;47.418;0.700;2023-05-10T08:53:48;2.8343096;;2.1480699;;;;;;;
44530;SPS30;30240;47.418;0.700;2023-05-10T08:56:14;3.9123404;;2.9091828;;;;;;;
44530;SPS30;30240;47.418;0.700;2023-05-10T08:58:38;2.8747458;;2.1330388;;;;;;;
44530;SPS30;30240;47.418;0.700;2023-05-10T09:01:03;2.8747458;;2.1330388;;;;;;;
44530;SPS30;30240;47.418;0.700;2023-05-10T09:03:29;3.0752578;;2.2704313;;;;;;;
44530;SPS30;30240;47.418;0.700;2023-05-10T09:05:54;2.8068342;;2.082966;;;;;;;
44530;SPS30;30240;47.418;0.700;2023-05-10T09:08:18;2.1377783;;1.5969988;;;;;;;
44530;SPS30;30240;47.418;0.700;2023-05-10T09:10:44;3.1100454;;2.339657;;;;;;;
44530;SPS30;30240;47.418;0.700;2023-05-10T09:13:09;3.1100454;;2.339657;;;;;;;
44530;SPS30;30240;47.418;0.700;2023-05-10T09:15:33;3.7377882;;2.8373775;;;;;;;
44530;SPS30;30240;47.418;0.700;2023-05-10T09:17:58;3.8971446;;3.0042226;;;;;;;
44530;SPS30;30240;47.418;0.700;2023-05-10T09:20:23;2.6755288;;2.075513;;;;;;;
44530;SPS30;30240;47.418;0.700;2023-05-10T09:22:48;2.3628056;;1.8639004;;;;;;;
44530;SPS30;30240;47.418;0.700;2023-05-10T09:25:14;2.3628056;;1.8639004;;;;;;;
44530;SPS30;30240;47.418;0.700;2023-05-10T09:27:39;3.1459723;;2.4782066;;;;;;;
44530;SPS30;30240;47.418;0.700;2023-05-10T09:30:04;1.4359268;;1.1458725;;;;;;;
44530;SPS30;30240;47.418;0.700;2023-05-10T09:32:36;3.3067436;;2.617416;;;;;;;
44530;SPS30;30240;47.418;0.700;2023-05-10T09:34:53;2.3404112;;1.8544245;;;;;;;
44530;SPS30;30240;47.418;0.700;2023-05-10T09:37:19;2.5751917;;1.9892007;;;;;;;
44530;SPS30;30240;47.418;0.700;2023-05-10T09:37:28;2.5751917;;1.9892007;;;;;;;
44530;SPS30;30240;47.418;0.700;2023-05-10T09:39:44;2.5751917;;1.9892007;;;;;;;
44530;SPS30;30240;47.418;0.700;2023-05-10T09:42:09;2.384337;;1.8597689;;;;;;;
44530;SPS30;30240;47.418;0.700;2023-05-10T09:44:34;1.7691609;;1.3679839;;;;;;;
44530;SPS30;30240;47.418;0.700;2023-05-10T09:46:58;3.2275305;;2.5123367;;;;;;;
44530;SPS30;30240;47.418;0.700;2023-05-10T09:49:24;2.5382411;;2.005161;;;;;;;
44530;SPS30;30240;47.418;0.700;2023-05-10T09:51:59;2.5382411;;2.005161;;;;;;;
44530;SPS30;30240;47.418;0.700;2023-05-10T09:54:14;2.9250991;;2.305114;;;;;;;
44530;SPS30;30240;47.418;0.700;2023-05-10T09:56:39;2.3930292;;1.8657563;;;;;;;
44530;SPS30;30240;47.418;0.700;2023-05-10T09:59:04;2.8818161;;2.261584;;;;;;;
44530;SPS30;30240;47.418;0.700;2023-05-10T10:01:29;2.9333763;;2.2913136;;;;;;;
44530;SPS30;30240;47.418;0.700;2023-05-10T10:03:53;2.9333763;;2.2913136;;;;;;;
44530;SPS30;30240;47.418;0.700;2023-05-10T10:06:18;3.372328;;2.6091928;;;;;;;
44530;SPS30;30240;47.418;0.700;2023-05-10T10:08:43;3.1907682;;2.4433908;;;;;;;
44530;SPS30;30240;47.418;0.700;2023-05-10T10:11:08;2.4870834;;1.9261935;;;;;;;
44530;SPS30;30240;47.418;0.700;2023-05-10T10:13:34;3.3600643;;2.581777;;;;;;;
44530;SPS30;30240;47.418;0.700;2023-05-10T10:15:58;3.3600643;;2.581777;;;;;;;
44530;SPS30;30240;47.418;0.700;2023-05-10T10:18:23;2.2191195;;1.7450702;;;;;;;
44530;SPS30;30240;47.418;0.700;2023-05-10T10:20:48;2.7771008;;2.2043;;;;;;;
44530;SPS30;30240;47.418;0.700;2023-05-10T10:23:13;2.9896297;;2.3924468;;;;;;;
44530;SPS30;30240;47.418;0.700;2023-05-10T10:25:38;1.8690441;;1.5197656;;;;;;;
44530;SPS30;30240;47.418;0.700;2023-05-10T10:28:07;1.8690441;;1.5197656;;;;;;;
44530;SPS30;30240;47.418;0.700;2023-05-10T10:30:30;1.9027205;;1.5397105;;;;;;;
44530;SPS30;30240;47.418;0.700;2023-05-10T10:32:59;2.0318942;;1.6444234;;;;;;;
44530;SPS30;30240;47.418;0.700;2023-05-10T10:35:18;2.046376;;1.6599402;;;;;;;
44530;SPS30;30240;47.418;0.700;2023-05-10T10:37:44;1.3694236;;1.1096443;;;;;;;
44530;SPS30;30240;47.418;0.700;2023-05-10T10:40:26;1.3694236;;1.1096443;;;;;;;
44530;SPS30;30240;47.418;0.700;2023-05-10T10:42:44;1.9262264;;1.565116;;;;;;;
44530;SPS30;30240;47.418;0.700;2023-05-10T10:45:12;1.4605161;;1.2084824;;;;;;;
44530;SPS30;30240;47.418;0.700;2023-05-10T10:47:23;2.160885;;1.8024638;;;;;;;
44530;SPS30;30240;47.418;0.700;2023-05-10T10:49:49;0.8702444;;0.7170886;;;;;;;
44530;SPS30;30240;47.418;0.700;2023-05-10T10:52:14;0.8702444;;0.7170886;;;;;;;
44530;SPS30;30240;47.418;0.700;2023-05-10T10:54:38;0.8903158;;0.7320691;;;;;;;
44530;SPS30;30240;47.418;0.700;2023-05-10T10:57:11;1.7589538;;1.4704461;;;;;;;
44530;SPS30;30240;47.418;0.700;2023-05-10T10:59:28;1.0055697;;0.8440928;;;;;;;
44530;SPS30;30240;47.418;0.700;2023-05-10T11:01:53;1.1240234;;0.9544522;;;;;;;
44530;SPS30;30240;47.418;0.700;2023-05-10T11:04:18;1.1240234;;0.9544522;;;;;;;
44530;SPS30;30240;47.418;0.700;2023-05-10T11:06:43;0.89699054;;0.76878273;;;;;;;
44530;SPS30;30240;47.418;0.700;2023-05-10T11:09:09;1.0596193;;0.89774776;;;;;;;
44530;SPS30;30240;47.418;0.700;2023-05-10T11:11:34;1.0968362;;0.94978124;;;;;;;
44530;SPS30;30240;47.418;0.700;2023-05-10T11:14:02;1.7545719;;1.5357413;;;;;;;
44530;SPS30;30240;47.418;0.700;2023-05-10T11:16:24;1.3660156;;1.2043706;;;;;;;
44530;SPS30;30240;47.418;0.700;2023-05-10T11:18:59;1.3660156;;1.2043706;;;;;;;
44530;SPS30;30240;47.418;0.700;2023-05-10T11:21:14;1.4717641;;1.2953293;;;;;;;
44530;SPS30;30240;47.418;0.700;2023-05-10T11:23:49;0.73340535;;0.64140385;;;;;;;
44530;SPS30;30240;47.418;0.700;2023-05-10T11:26:03;0.67924535;;0.59667367;;;;;;;
44530;SPS30;30240;47.418;0.700;2023-05-10T11:28:28;0.9849065;;0.87183744;;;;;;;
44530;SPS30;30240;47.418;0.700;2023-05-10T11:30:53;0.9849065;;0.87183744;;;;;;;
44530;SPS30;30240;47.418;0.700;2023-05-10T11:33:19;1.2053146;;1.0536011;;;;;;;
44530;SPS30;30240;47.418;0.700;2023-05-10T11:35:43;0.93154246;;0.8091761;;;;;;;
44530;SPS30;30240;47.418;0.700;2023-05-10T11:38:09;1.3227782;;1.1410669;;;;;;;
44530;SPS30;30240;47.418;0.700;2023-05-10T11:40:34;1.8369598;;1.5505424;;;;;;;
44530;SPS30;30240;47.418;0.700;2023-05-10T11:42:59;1.8369598;;1.5505424;;;;;;;
44530;SPS30;30240;47.418;0.700;2023-05-10T11:45:24;2.4423704;;2.0548077;;;;;;;
44530;SPS30;30240;47.418;0.700;2023-05-10T11:47:48;1.9623619;;1.6504271;;;;;;;
44530;SPS30;30240;47.418;0.700;2023-05-10T11:50:14;1.5612594;;1.3473685;;;;;;;
44530;SPS30;30240;47.418;0.700;2023-05-10T11:52:38;1.7977704;;1.5696371;;;;;;;
44530;SPS30;30240;47.418;0.700;2023-05-10T11:55:04;1.7977704;;1.5696371;;;;;;;
44530;SPS30;30240;47.418;0.700;2023-05-10T11:57:29;2.1786168;;1.8919146;;;;;;;
44530;SPS30;30240;47.418;0.700;2023-05-10T11:59:54;2.095331;;1.85158;;;;;;;
44530;SPS30;30240;47.418;0.700;2023-05-10T12:02:18;1.797966;;1.617511;;;;;;;
44530;SPS30;30240;47.418;0.700;2023-05-10T12:04:43;1.7247596;;1.5271082;;;;;;;
44530;SPS30;30240;47.418;0.700;2023-05-10T12:07:08;1.7247596;;1.5271082;;;;;;;
44530;SPS30;30240;47.418;0.700;2023-05-10T12:09:33;1.8025323;;1.5893506;;;;;;;